Time;durP1;ratioP1;P1;durP2;ratioP2;P2;SDS_P1;SDS_P2;PMS_P1;PMS_P2;Temp;Humidity;BMP_temperature;BMP_pressure;BME280_temperature;BME280_humidity;BME280_pressure;Samples;Min_cycle;Max_cycle;Signal;HPM_P1;HPM_P2
2022/07/21 00:00:31;;;;;;;2.37;1.50;;;;;;;17.62;80.93;99867.13;5000103;28;20320;-60
2022/07/21 00:03:02;;;;;;;2.97;1.50;;;;;;;17.66;79.73;99836.97;4999836;28;20284;-60
2022/07/21 00:05:34;;;;;;;4.63;1.70;;;;;;;17.89;77.97;99874.56;5000124;28;20294;-59
2022/07/21 00:08:06;;;;;;;5.70;1.60;;;;;;;18.01;79.06;99873.06;5000587;28;20278;-59
2022/07/21 00:10:37;;;;;;;3.30;1.63;;;;;;;18.07;77.23;99868.31;5000024;28;20277;-60
2022/07/21 00:13:09;;;;;;;3.97;1.90;;;;;;;18.12;75.79;99854.81;4999596;28;20309;-61
2022/07/21 00:15:40;;;;;;;3.90;1.80;;;;;;;18.44;74.83;99861.00;4993041;28;20297;-61
2022/07/21 00:18:11;;;;;;;3.07;1.77;;;;;;;18.64;75.91;99861.69;4989551;28;20547;-59
2022/07/21 00:20:43;;;;;;;2.50;1.77;;;;;;;18.69;74.35;99864.94;4998655;28;20313;-59
2022/07/21 00:23:14;;;;;;;6.97;2.00;;;;;;;18.66;74.62;99865.09;4997494;28;20352;-61
2022/07/21 00:25:45;;;;;;;4.03;1.90;;;;;;;18.45;75.24;99846.00;4993039;28;20312;-61
2022/07/21 00:28:17;;;;;;;4.23;1.97;;;;;;;18.51;75.48;99856.22;4998752;28;20302;-61
2022/07/21 00:30:48;;;;;;;5.00;2.00;;;;;;;18.62;74.39;99852.97;5015244;28;20281;-60
2022/07/21 00:33:20;;;;;;;2.70;2.03;;;;;;;18.57;74.82;99852.38;5019143;28;20703;-61
2022/07/21 00:35:51;;;;;;;3.70;1.87;;;;;;;18.41;74.77;99855.88;5005902;28;20325;-58
2022/07/21 00:38:22;;;;;;;6.20;2.10;;;;;;;18.40;75.67;99848.91;4999039;28;20566;-59
2022/07/21 00:40:53;;;;;;;3.07;1.93;;;;;;;18.72;76.17;99854.16;4997024;28;20401;-61
2022/07/21 00:43:25;;;;;;;2.63;2.03;;;;;;;18.85;73.46;99849.94;4987290;28;20278;-60
2022/07/21 00:45:57;;;;;;;7.70;2.30;;;;;;;18.95;72.82;99848.47;4988141;28;20333;-60
2022/07/21 00:48:28;;;;;;;6.43;2.10;;;;;;;18.90;71.77;99845.22;4999473;28;20309;-60
2022/07/21 00:50:58;;;;;;;14.83;2.37;;;;;;;18.86;72.20;99843.69;4999238;28;20292;-58
2022/07/21 00:53:29;;;;;;;3.20;1.90;;;;;;;19.00;72.73;99853.50;4999169;28;20273;-61
2022/07/21 00:56:01;;;;;;;2.13;1.77;;;;;;;19.08;71.58;99845.94;4999199;28;20297;-62
2022/07/21 00:58:33;;;;;;;3.97;2.03;;;;;;;18.98;71.39;99828.06;4999284;28;20281;-60
2022/07/21 01:01:05;;;;;;;5.33;2.00;;;;;;;18.49;71.59;99769.00;4999126;28;20321;-60
2022/07/21 01:03:37;;;;;;;3.97;1.83;;;;;;;18.48;70.81;99762.03;4999110;28;20356;-60
2022/07/21 01:06:08;;;;;;;3.57;2.00;;;;;;;19.17;71.38;99833.97;4999174;28;20277;-61
2022/07/21 01:08:39;;;;;;;9.90;2.17;;;;;;;19.47;72.30;99830.44;5001416;28;20277;-60
2022/07/21 01:11:10;;;;;;;4.07;1.93;;;;;;;19.53;71.17;99819.47;5000685;28;20305;-62
2022/07/21 01:13:43;;;;;;;3.67;2.00;;;;;;;19.40;69.71;99785.75;4991985;28;20290;-60
2022/07/21 01:16:14;;;;;;;4.63;2.20;;;;;;;19.59;70.48;99825.25;4983632;28;20278;-60
2022/07/21 01:18:45;;;;;;;6.73;2.60;;;;;;;19.68;69.84;99818.56;4983632;28;20344;-61
2022/07/21 01:21:31;;;;;;;2.77;2.20;;;;;;;20.04;69.65;99825.19;4983360;28;20314;-62
2022/07/21 01:24:02;;;;;;;5.63;2.37;;;;;;;20.07;68.80;99808.22;4983443;28;20301;-61
2022/07/21 01:26:41;;;;;;;7.77;2.20;;;;;;;19.86;69.53;99815.72;4983400;28;20313;-61
2022/07/21 01:29:13;;;;;;;5.13;2.80;;;;;;;19.78;70.57;99806.44;4995069;28;20650;-59
2022/07/21 01:31:45;;;;;;;4.83;2.33;;;;;;;19.88;69.14;99804.09;5007776;28;20054;-60
2022/07/21 01:34:16;;;;;;;5.10;2.50;;;;;;;19.96;70.03;99801.78;5007094;28;20502;-61
2022/07/21 01:36:48;;;;;;;3.50;2.20;;;;;;;20.09;68.42;99803.69;5007721;28;20293;-62
2022/07/21 01:42:07;;;;;;;6.67;2.20;;;;;;;20.40;68.33;99805.25;5006728;28;20305;-58
2022/07/21 01:44:38;;;;;;;3.83;2.37;;;;;;;20.26;67.61;99809.59;5006779;28;20300;-58
2022/07/21 01:47:09;;;;;;;5.63;2.40;;;;;;;20.18;68.42;99809.25;5007402;28;20612;-57
2022/07/21 01:49:40;;;;;;;4.87;2.20;;;;;;;20.17;67.95;99810.22;5006914;28;20283;-59
2022/07/21 01:52:12;;;;;;;7.37;2.20;;;;;;;20.01;67.89;99804.16;5007351;28;20429;-58
2022/07/21 01:54:43;;;;;;;4.97;2.97;;;;;;;19.87;68.83;99804.16;5007682;28;20282;-62
2022/07/21 01:57:14;;;;;;;5.17;2.33;;;;;;;19.89;70.08;99804.94;5007804;28;21377;-61
2022/07/21 01:59:45;;;;;;;5.20;2.23;;;;;;;20.10;68.58;99802.75;5007657;28;20488;-61
2022/07/21 02:02:20;;;;;;;6.67;2.50;;;;;;;20.04;69.41;99772.13;5006738;28;20304;-61
2022/07/21 02:04:51;;;;;;;2.53;2.03;;;;;;;20.18;68.21;99808.41;5007634;28;20357;-61
2022/07/21 02:07:24;;;;;;;15.83;2.80;;;;;;;20.13;69.84;99792.78;5007679;28;20297;-57
2022/07/21 02:09:55;;;;;;;3.93;2.50;;;;;;;20.22;69.21;99810.78;5007248;28;20294;-61
2022/07/21 02:12:26;;;;;;;6.70;2.20;;;;;;;20.16;68.25;99808.50;5008281;28;20317;-56
2022/07/21 02:14:57;;;;;;;2.93;2.10;;;;;;;20.11;69.63;99789.38;5008218;28;20285;-58
2022/07/21 02:17:27;;;;;;;6.40;2.30;;;;;;;20.37;69.29;99794.84;5007308;28;20632;-59
2022/07/21 02:19:58;;;;;;;4.27;2.30;;;;;;;20.41;68.64;99806.94;5007093;28;20539;-62
2022/07/21 02:22:31;;;;;;;8.03;2.20;;;;;;;20.17;67.78;99804.91;5007647;28;20350;-60
2022/07/21 02:25:02;;;;;;;6.90;2.37;;;;;;;20.09;68.87;99801.88;5007270;28;20553;-57
2022/07/21 02:27:33;;;;;;;6.87;2.20;;;;;;;20.01;68.27;99801.50;5006126;28;20365;-59
2022/07/21 02:30:04;;;;;;;10.63;2.57;;;;;;;19.87;69.47;99796.22;5006862;28;20315;-58
2022/07/21 02:32:35;;;;;;;10.47;2.10;;;;;;;19.97;69.54;99802.66;5007196;28;20395;-58
2022/07/21 02:35:07;;;;;;;9.57;2.07;;;;;;;20.06;69.43;99802.06;5007585;28;20348;-60
2022/07/21 02:37:40;;;;;;;2.70;1.70;;;;;;;19.93;67.37;99780.78;5006890;28;20666;-58
2022/07/21 02:40:11;;;;;;;5.07;2.00;;;;;;;19.88;68.27;99808.53;5007432;28;20388;-59
2022/07/21 02:42:42;;;;;;;6.47;2.07;;;;;;;19.74;69.17;99812.88;5007332;28;20365;-60
2022/07/21 02:45:13;;;;;;;3.63;1.77;;;;;;;19.61;69.69;99819.84;5007614;28;20289;-60
2022/07/21 02:47:58;;;;;;;13.00;2.40;;;;;;;19.64;69.70;99811.72;5007398;28;20305;-62
2022/07/21 02:50:30;;;;;;;4.47;1.90;;;;;;;19.49;69.26;99802.03;5007335;28;20301;-59
2022/07/21 02:53:03;;;;;;;5.43;1.80;;;;;;;19.17;70.09;99776.56;5006765;28;20570;-60
2022/07/21 02:55:35;;;;;;;3.63;1.67;;;;;;;18.95;70.55;99774.31;5006028;28;20405;-59
2022/07/21 02:58:10;;;;;;;2.20;1.50;;;;;;;18.92;70.86;99798.34;5006915;28;20285;-60
2022/07/21 03:00:43;;;;;;;3.60;1.60;;;;;;;18.88;71.88;99820.63;5006636;28;20278;-59
2022/07/21 03:03:14;;;;;;;3.47;1.63;;;;;;;18.69;72.45;99817.28;5006360;28;20336;-62
2022/07/21 03:05:45;;;;;;;10.00;1.70;;;;;;;18.40;72.54;99811.03;5005982;28;20340;-58
2022/07/21 03:08:18;;;;;;;4.33;1.87;;;;;;;18.27;73.58;99821.41;5006813;28;20641;-58
2022/07/21 03:10:48;;;;;;;5.30;1.73;;;;;;;17.99;73.63;99830.84;5006005;28;20332;-61
2022/07/21 03:13:19;;;;;;;2.30;1.70;;;;;;;17.71;74.45;99822.66;5006573;28;20485;-59
2022/07/21 03:15:50;;;;;;;9.07;1.97;;;;;;;17.46;75.50;99829.22;5007426;28;20289;-59
2022/07/21 03:18:20;;;;;;;4.77;1.80;;;;;;;17.32;76.66;99832.56;5006683;28;20313;-59
2022/07/21 03:20:51;;;;;;;2.23;1.63;;;;;;;17.31;76.77;99832.66;5006638;28;20361;-61
2022/07/21 03:23:23;;;;;;;2.20;1.47;;;;;;;17.28;77.07;99835.47;5006488;28;20311;-60
2022/07/21 03:25:54;;;;;;;3.77;1.57;;;;;;;17.21;77.53;99846.31;5006662;28;20278;-61
2022/07/21 03:28:25;;;;;;;5.27;1.87;;;;;;;17.10;77.54;99837.22;5012032;28;20659;-60
2022/07/21 03:30:56;;;;;;;5.40;2.07;;;;;;;17.00;78.60;99842.13;5024313;28;20287;-60
2022/07/21 03:33:26;;;;;;;5.40;1.60;;;;;;;16.91;79.29;99837.28;5026215;28;20294;-59
2022/07/21 03:35:58;;;;;;;3.03;1.73;;;;;;;16.68;79.96;99791.75;5026714;28;20308;-58
2022/07/21 03:38:30;;;;;;;2.50;1.53;;;;;;;16.93;79.50;99840.72;5026441;28;20331;-60
2022/07/21 03:41:01;;;;;;;2.53;1.13;;;;;;;16.88;79.83;99840.09;5026535;28;20285;-59
2022/07/21 03:43:35;;;;;;;2.57;1.30;;;;;;;16.78;80.80;99839.69;5023648;28;20323;-59
2022/07/21 03:46:06;;;;;;;9.27;1.60;;;;;;;16.78;81.29;99843.16;5026036;28;20350;-60
2022/07/21 03:48:36;;;;;;;2.67;1.40;;;;;;;16.64;82.08;99845.59;5024863;28;20456;-59
2022/07/21 03:51:08;;;;;;;8.33;2.00;;;;;;;16.49;82.97;99835.78;5024439;28;20292;-59
2022/07/21 03:53:41;;;;;;;10.20;1.70;;;;;;;16.23;83.29;99808.88;5024405;28;20285;-59
2022/07/21 03:56:11;;;;;;;4.17;1.30;;;;;;;16.45;84.26;99850.00;5025046;28;20280;-60
2022/07/21 03:58:42;;;;;;;2.77;1.20;;;;;;;16.41;84.48;99844.03;5023620;28;20355;-60
2022/07/21 04:01:12;;;;;;;9.00;1.17;;;;;;;16.34;84.74;99848.75;5025439;28;20313;-57
2022/07/21 04:03:43;;;;;;;9.43;1.50;;;;;;;16.34;85.13;99848.75;5025592;28;21020;-59
2022/07/21 04:06:14;;;;;;;7.43;1.30;;;;;;;16.21;85.87;99842.34;5023829;28;20694;-59
2022/07/21 04:08:46;;;;;;;9.63;1.47;;;;;;;16.30;86.33;99847.19;5025351;28;20299;-59
2022/07/21 04:11:16;;;;;;;1.40;0.80;;;;;;;16.27;85.80;99849.94;5025184;28;20343;-59
2022/07/21 04:13:47;;;;;;;4.43;1.30;;;;;;;16.17;86.43;99856.56;5024495;28;20357;-58
2022/07/21 04:16:18;;;;;;;2.40;0.90;;;;;;;16.09;87.76;99848.19;5024252;28;20287;-61
2022/07/21 04:18:48;;;;;;;5.67;1.07;;;;;;;16.02;87.89;99852.00;5021445;28;20387;-60
2022/07/21 04:21:19;;;;;;;5.50;1.27;;;;;;;16.03;89.54;99851.09;5025424;28;20476;-59
2022/07/21 04:23:51;;;;;;;8.63;1.20;;;;;;;16.01;89.60;99855.59;5025111;28;20297;-60
2022/07/21 04:26:22;;;;;;;1.10;0.90;;;;;;;16.05;89.35;99857.13;5024086;28;20292;-59
2022/07/21 04:28:53;;;;;;;3.07;0.80;;;;;;;15.90;88.60;99825.31;5023385;28;20320;-58
2022/07/21 04:31:24;;;;;;;4.60;1.10;;;;;;;16.14;88.35;99856.72;5024840;28;20285;-58
2022/07/21 04:33:55;;;;;;;6.10;1.40;;;;;;;16.15;88.86;99853.19;5025056;28;20296;-59
2022/07/21 04:36:25;;;;;;;5.33;1.17;;;;;;;16.14;88.99;99854.09;5023933;28;20296;-58
2022/07/21 04:38:58;;;;;;;3.90;1.30;;;;;;;16.23;88.11;99855.47;5023764;28;20296;-58
2022/07/21 04:41:28;;;;;;;4.30;1.10;;;;;;;15.96;87.90;99806.56;5024814;28;20680;-59
2022/07/21 04:44:00;;;;;;;4.80;1.30;;;;;;;16.35;88.82;99855.75;5024252;28;20308;-60
2022/07/21 04:46:31;;;;;;;1.37;1.10;;;;;;;16.44;88.35;99858.88;5025181;28;20276;-59
2022/07/21 04:49:01;;;;;;;3.67;1.20;;;;;;;16.38;88.94;99860.88;5025109;28;20293;-58
2022/07/21 04:51:32;;;;;;;1.73;1.40;;;;;;;16.19;89.93;99854.72;5024840;28;20368;-59
2022/07/21 04:54:04;;;;;;;2.37;1.37;;;;;;;16.12;90.72;99840.13;5024695;28;20287;-60
2022/07/21 04:56:35;;;;;;;2.83;1.40;;;;;;;16.14;90.86;99854.09;5024815;28;20288;-60
2022/07/21 04:59:06;;;;;;;2.90;1.40;;;;;;;16.16;90.96;99844.34;5024395;28;20639;-59
2022/07/21 05:01:36;;;;;;;3.23;1.57;;;;;;;16.22;91.05;99851.09;5022746;28;20308;-60
2022/07/21 05:04:08;;;;;;;1.73;1.20;;;;;;;16.08;88.77;99830.66;5024124;28;20371;-59
2022/07/21 05:06:38;;;;;;;2.73;1.20;;;;;;;16.10;89.74;99849.88;5024371;28;20318;-61
2022/07/21 05:09:11;;;;;;;4.60;1.30;;;;;;;16.04;90.28;99839.63;5022266;28;20292;-60
2022/07/21 05:11:41;;;;;;;8.87;1.50;;;;;;;16.03;91.40;99837.94;5024083;28;20910;-60
2022/07/21 05:14:12;;;;;;;2.97;1.60;;;;;;;16.04;90.91;99839.63;5021957;28;20400;-61
2022/07/21 05:16:44;;;;;;;9.07;1.23;;;;;;;15.98;90.23;99832.00;5023918;28;20363;-60
2022/07/21 05:19:14;;;;;;;4.67;1.40;;;;;;;16.04;90.82;99840.47;5023746;28;20348;-60
2022/07/21 05:21:46;;;;;;;6.07;1.47;;;;;;;16.12;91.01;99837.47;5023902;28;20277;-60
2022/07/21 05:24:19;;;;;;;4.30;1.53;;;;;;;16.07;90.90;99826.31;5020794;28;20641;-60
2022/07/21 05:26:49;;;;;;;3.03;1.20;;;;;;;16.07;91.68;99828.94;5022274;28;20308;-59
2022/07/21 05:29:20;;;;;;;4.57;1.37;;;;;;;16.13;91.79;99824.25;5023471;28;20326;-60
2022/07/21 05:31:50;;;;;;;4.93;1.80;;;;;;;16.11;92.17;99817.34;5022848;28;20303;-61
2022/07/21 05:34:21;;;;;;;4.93;1.43;;;;;;;16.16;92.43;99823.25;5036072;28;20350;-60
2022/07/21 05:36:52;;;;;;;4.43;1.60;;;;;;;16.24;91.91;99821.09;5036829;28;20347;-61
2022/07/21 05:39:25;;;;;;;5.20;1.70;;;;;;;16.35;90.08;99824.09;5017017;28;20372;-60
2022/07/21 05:41:55;;;;;;;2.10;1.20;;;;;;;16.41;88.97;99822.09;4998508;28;20285;-61
2022/07/21 05:44:26;;;;;;;8.40;1.40;;;;;;;16.54;89.00;99812.66;5009158;28;20383;-60
2022/07/21 05:46:57;;;;;;;5.07;1.20;;;;;;;16.63;89.26;99814.88;5018377;28;20701;-60
2022/07/21 05:49:28;;;;;;;4.37;1.30;;;;;;;16.74;88.61;99807.28;5018300;28;20344;-59
2022/07/21 05:51:58;;;;;;;2.73;1.13;;;;;;;16.86;86.90;99799.72;5018338;28;20280;-59
2022/07/21 05:54:31;;;;;;;5.60;1.50;;;;;;;16.96;86.54;99798.34;5018652;28;20304;-61
2022/07/21 05:57:02;;;;;;;3.10;1.40;;;;;;;17.07;86.75;99797.78;5021916;28;20578;-60
2022/07/21 05:59:32;;;;;;;4.10;1.20;;;;;;;17.18;86.52;99806.88;5021947;28;20276;-61
2022/07/21 06:02:03;;;;;;;3.93;1.27;;;;;;;17.25;86.21;99803.00;5021864;28;20365;-60
2022/07/21 06:04:34;;;;;;;2.93;1.10;;;;;;;17.22;85.59;99805.81;5022273;28;20348;-62
2022/07/21 06:07:05;;;;;;;3.53;1.20;;;;;;;16.99;85.85;99790.25;5011735;28;20293;-61
2022/07/21 06:09:37;;;;;;;1.97;1.03;;;;;;;16.99;85.50;99803.44;5018999;28;20277;-61
2022/07/21 06:12:08;;;;;;;3.40;1.20;;;;;;;16.79;86.06;99801.81;5012294;28;20333;-61
2022/07/21 06:14:38;;;;;;;6.63;1.70;;;;;;;16.75;86.73;99801.09;5005098;28;20329;-59
2022/07/21 06:17:09;;;;;;;5.13;1.50;;;;;;;16.68;86.70;99802.31;5015466;28;20364;-60
2022/07/21 06:19:40;;;;;;;5.27;1.57;;;;;;;16.70;86.23;99805.72;5023614;28;20294;-59
2022/07/21 06:22:10;;;;;;;13.30;4.43;;;;;;;16.72;86.30;99806.47;5026848;28;20317;-57
2022/07/21 06:24:43;;;;;;;12.13;5.20;;;;;;;16.86;86.16;99797.09;5026465;28;20345;-60
2022/07/21 06:27:13;;;;;;;5.87;1.40;;;;;;;16.95;85.36;99796.63;5026681;28;20357;-58
2022/07/21 06:29:44;;;;;;;6.20;1.30;;;;;;;16.97;84.61;99800.03;5023210;28;20444;-59
2022/07/21 06:32:15;;;;;;;5.00;1.73;;;;;;;16.99;84.50;99790.25;5027173;28;20363;-60
2022/07/21 06:34:48;;;;;;;5.10;1.87;;;;;;;17.05;84.55;99792.59;5025654;28;20303;-61
2022/07/21 06:37:19;;;;;;;5.63;1.63;;;;;;;16.95;84.33;99796.63;5027069;28;20621;-61
2022/07/21 06:39:52;;;;;;;9.23;2.90;;;;;;;16.84;84.91;99796.31;5024638;28;20288;-61
2022/07/21 06:42:22;;;;;;;2.30;1.03;;;;;;;16.61;85.48;99771.88;5026204;28;20573;-59
2022/07/21 06:44:53;;;;;;;4.90;1.93;;;;;;;16.74;86.08;99788.81;5026314;28;20358;-60
2022/07/21 06:47:24;;;;;;;8.10;1.40;;;;;;;16.77;86.16;99788.69;5027212;28;20288;-62
2022/07/21 06:49:55;;;;;;;10.30;2.83;;;;;;;16.81;86.04;99782.34;5026775;28;20319;-60
2022/07/21 06:52:33;;;;;;;3.27;1.30;;;;;;;16.78;85.73;99779.00;5026869;28;21253;-60
2022/07/21 06:55:06;;;;;;;5.23;1.40;;;;;;;16.84;86.08;99783.13;5027072;28;20280;-60
2022/07/21 06:57:37;;;;;;;2.87;1.20;;;;;;;16.90;85.82;99785.44;5025866;28;20308;-60
2022/07/21 07:00:10;;;;;;;3.70;1.20;;;;;;;16.45;85.60;99731.34;5027005;28;20290;-59
2022/07/21 07:02:40;;;;;;;5.40;1.20;;;;;;;16.87;86.00;99782.94;5026821;28;20304;-59
2022/07/21 07:05:11;;;;;;;40.67;17.87;;;;;;;16.86;85.86;99783.91;5026515;28;20489;-60
2022/07/21 07:07:43;;;;;;;21.80;8.23;;;;;;;16.87;86.16;99785.59;5027031;28;20359;-59
2022/07/21 07:10:15;;;;;;;10.17;2.17;;;;;;;16.88;86.03;99784.69;5026958;28;20566;-61
2022/07/21 07:12:46;;;;;;;57.10;33.57;;;;;;;16.83;85.95;99781.41;5026538;28;20308;-61
2022/07/21 07:15:37;;;;;;;8.87;3.93;;;;;;;16.68;86.28;99762.75;5026649;28;20285;-61
2022/07/21 07:18:08;;;;;;;39.40;21.43;;;;;;;16.73;86.72;99775.72;5024524;28;20330;-60
2022/07/21 07:20:38;;;;;;;121.73;75.67;;;;;;;16.58;86.76;99745.66;5026218;28;20457;-61
2022/07/21 07:23:09;;;;;;;60.53;48.57;;;;;;;16.78;86.48;99777.22;5024776;28;20300;-59
2022/07/21 07:25:41;;;;;;;9.80;6.73;;;;;;;16.53;86.69;99742.41;5026282;28;20312;-61
2022/07/21 07:28:12;;;;;;;14.57;7.80;;;;;;;16.69;86.48;99777.63;5026375;28;20280;-61
2022/07/21 07:30:42;;;;;;;7.70;1.20;;;;;;;16.72;83.46;99774.81;5026020;28;20348;-61
2022/07/21 07:33:13;;;;;;;4.37;1.20;;;;;;;16.75;80.89;99772.06;5026283;28;20352;-59
2022/07/21 07:35:44;;;;;;;13.87;1.63;;;;;;;16.74;80.92;99761.56;5026183;28;20374;-60
2022/07/21 07:38:15;;;;;;;10.67;1.30;;;;;;;16.72;80.63;99758.16;5026125;28;20296;-61
2022/07/21 07:40:48;;;;;;;11.60;3.50;;;;;;;16.74;82.06;99757.16;5024894;28;20662;-61
2022/07/21 07:43:19;;;;;;;13.17;5.30;;;;;;;16.79;81.84;99760.44;5024804;28;20359;-61
2022/07/21 07:45:49;;;;;;;9.37;1.97;;;;;;;16.79;81.35;99749.88;5025490;28;20312;-61
2022/07/21 07:48:20;;;;;;;6.37;1.37;;;;;;;16.84;80.96;99751.44;5026033;28;20336;-61
2022/07/21 07:50:51;;;;;;;4.50;1.30;;;;;;;16.83;80.98;99749.75;5025919;28;20588;-62
2022/07/21 07:53:21;;;;;;;4.43;1.10;;;;;;;16.79;81.45;99749.88;5025863;28;20308;-60
2022/07/21 07:55:54;;;;;;;41.10;23.33;;;;;;;16.75;81.75;99743.03;5026194;28;20451;-61
2022/07/21 07:58:25;;;;;;;7.07;2.03;;;;;;;16.72;81.45;99743.16;5024404;28;20360;-62
2022/07/21 08:00:56;;;;;;;3.33;0.90;;;;;;;16.56;81.11;99726.41;5022065;28;20293;-61
2022/07/21 08:03:34;;;;;;;3.63;0.90;;;;;;;16.70;81.51;99754.72;5023807;28;20355;-62
2022/07/21 08:06:06;;;;;;;6.60;1.50;;;;;;;16.73;82.14;99760.72;5024460;28;20054;-59
2022/07/21 08:08:36;;;;;;;7.67;1.27;;;;;;;16.74;82.46;99757.16;5025632;28;20505;-61
2022/07/21 08:11:09;;;;;;;18.53;1.83;;;;;;;16.70;82.75;99750.34;5024657;28;20639;-61
2022/07/21 08:13:40;;;;;;;12.50;1.00;;;;;;;16.75;82.96;99764.16;5025984;28;20360;-62
2022/07/21 08:16:12;;;;;;;2.43;0.97;;;;;;;16.77;82.85;99762.28;5025958;28;20333;-61
2022/07/21 08:18:43;;;;;;;6.30;1.10;;;;;;;16.67;82.52;99761.00;5024764;28;20636;-61
2022/07/21 08:21:17;;;;;;;11.03;5.83;;;;;;;16.70;83.24;99766.16;5025580;28;21154;-61
2022/07/21 08:23:48;;;;;;;13.43;1.10;;;;;;;16.68;83.28;99768.00;5025556;28;20290;-59
2022/07/21 08:26:21;;;;;;;6.40;1.40;;;;;;;16.62;83.10;99768.31;5025530;28;20577;-60
2022/07/21 08:28:52;;;;;;;3.27;1.03;;;;;;;16.60;83.91;99771.03;5025524;28;20597;-60
2022/07/21 08:31:23;;;;;;;19.63;1.70;;;;;;;16.61;84.02;99771.88;5025078;28;20671;-60
2022/07/21 08:33:55;;;;;;;6.13;1.10;;;;;;;16.54;84.53;99770.47;5025540;28;20639;-60
2022/07/21 08:36:25;;;;;;;7.57;1.20;;;;;;;16.60;84.74;99775.47;5025264;28;20323;-62
2022/07/21 08:38:56;;;;;;;11.40;1.23;;;;;;;16.56;84.61;99780.00;5020558;28;20273;-61
2022/07/21 08:41:29;;;;;;;3.27;1.20;;;;;;;16.52;84.84;99782.88;5018275;28;20554;-60
2022/07/21 08:44:00;;;;;;;7.47;1.33;;;;;;;16.29;85.01;99755.84;5016217;28;20285;-60
2022/07/21 08:46:31;;;;;;;6.63;0.90;;;;;;;16.38;84.95;99786.19;5011568;28;20280;-61
2022/07/21 08:49:04;;;;;;;9.33;0.90;;;;;;;16.02;85.13;99728.16;5018605;28;20296;-61
2022/07/21 08:51:35;;;;;;;7.10;1.00;;;;;;;16.02;85.62;99729.00;5017745;28;20323;-61
2022/07/21 08:54:06;;;;;;;6.63;0.90;;;;;;;16.21;85.77;99771.16;5018015;28;20291;-61
2022/07/21 08:56:39;;;;;;;9.10;1.00;;;;;;;16.30;85.58;99783.03;5017881;28;20534;-60
2022/07/21 08:59:10;;;;;;;13.03;0.90;;;;;;;15.82;85.53;99708.88;5018315;28;20318;-61
2022/07/21 09:01:41;;;;;;;3.63;0.73;;;;;;;16.21;85.43;99792.25;5018380;28;20295;-61
2022/07/21 09:04:25;;;;;;;6.50;0.70;;;;;;;16.07;85.38;99786.78;5009119;28;20286;-60
2022/07/21 09:06:58;;;;;;;0.40;0.40;;;;;;;16.11;85.45;99793.63;5007773;28;20369;-59
2022/07/21 09:09:30;;;;;;;3.03;0.40;;;;;;;16.09;85.76;99800.72;4999547;28;20619;-59
2022/07/21 09:12:03;;;;;;;6.70;0.70;;;;;;;16.06;85.58;99792.97;5009110;28;20368;-60
2022/07/21 09:14:36;;;;;;;4.23;0.77;;;;;;;16.07;86.32;99803.44;5001505;28;20301;-60
2022/07/21 09:17:07;;;;;;;17.53;0.90;;;;;;;16.03;86.21;99801.03;4999106;28;20277;-59
2022/07/21 09:19:41;;;;;;;11.93;0.80;;;;;;;16.00;86.60;99806.41;5011964;28;20307;-60
2022/07/21 09:22:16;;;;;;;6.27;0.90;;;;;;;15.94;86.90;99813.69;4999979;28;20297;-59
2022/07/21 09:24:52;;;;;;;14.23;0.93;;;;;;;15.92;87.18;99807.63;4998868;28;20618;-60
2022/07/21 09:27:25;;;;;;;8.47;0.80;;;;;;;15.89;87.56;99815.69;5001706;28;20301;-60
2022/07/21 09:29:59;;;;;;;6.03;0.80;;;;;;;15.87;87.81;99806.13;5007531;28;20293;-61
2022/07/21 09:32:31;;;;;;;20.97;1.30;;;;;;;15.85;88.16;99816.75;5017770;28;20292;-60
2022/07/21 09:35:04;;;;;;;11.77;0.83;;;;;;;15.83;88.52;99812.47;5020655;28;20283;-61
2022/07/21 09:37:38;;;;;;;10.40;1.10;;;;;;;15.83;89.11;99820.38;5022317;28;20292;-59
2022/07/21 09:40:10;;;;;;;10.90;0.80;;;;;;;15.80;89.20;99809.97;5022363;28;20292;-58
2022/07/21 09:42:44;;;;;;;3.07;0.50;;;;;;;15.78;89.36;99807.41;5022490;28;20597;-61
2022/07/21 09:45:17;;;;;;;2.43;0.50;;;;;;;15.72;89.35;99798.03;5022388;28;20296;-60
2022/07/21 09:47:48;;;;;;;5.63;0.93;;;;;;;15.76;89.48;99808.41;5022189;28;20273;-61
2022/07/21 09:50:19;;;;;;;11.93;1.00;;;;;;;15.76;89.68;99811.91;5022297;28;20440;-59
2022/07/21 09:52:57;;;;;;;12.13;1.10;;;;;;;15.77;89.91;99815.38;5021969;28;20287;-60
2022/07/21 09:55:31;;;;;;;19.50;2.17;;;;;;;15.77;90.21;99808.31;5022081;28;20273;-61
2022/07/21 09:58:04;;;;;;;21.60;1.27;;;;;;;15.76;89.97;99814.53;5022022;28;20336;-60
2022/07/21 10:00:36;;;;;;;10.17;1.30;;;;;;;15.72;88.55;99812.94;5022098;28;20287;-60
2022/07/21 10:03:06;;;;;;;9.20;1.07;;;;;;;15.70;87.93;99820.94;5015275;28;20294;-61
2022/07/21 10:05:37;;;;;;;5.87;0.90;;;;;;;15.66;86.48;99818.47;5009465;28;20385;-60
2022/07/21 10:08:08;;;;;;;2.63;0.77;;;;;;;15.64;86.22;99820.31;5020643;28;20308;-58
2022/07/21 10:10:40;;;;;;;5.47;0.90;;;;;;;15.60;85.73;99814.34;5021867;28;20363;-60
2022/07/21 10:13:32;;;;;;;3.80;0.80;;;;;;;15.54;85.70;99810.16;5021617;28;20275;-58
2022/07/21 10:16:04;;;;;;;1.53;0.70;;;;;;;15.58;85.57;99807.44;5021944;28;20305;-60
2022/07/21 10:18:38;;;;;;;5.93;1.67;;;;;;;15.54;85.55;99804.91;5021686;28;20288;-60
2022/07/21 10:21:19;;;;;;;6.77;1.20;;;;;;;15.50;85.90;99808.63;5002460;28;20348;-60
2022/07/21 10:23:55;;;;;;;5.27;0.90;;;;;;;15.47;86.02;99813.13;5001866;28;20284;-59
2022/07/21 10:26:26;;;;;;;5.40;1.00;;;;;;;15.42;86.26;99810.72;5001889;28;20601;-60
2022/07/21 10:28:58;;;;;;;10.60;1.30;;;;;;;15.42;86.57;99823.88;4999279;28;20273;-61
2022/07/21 10:31:29;;;;;;;5.80;1.10;;;;;;;15.41;86.77;99814.28;5005687;28;20372;-60
2022/07/21 10:34:02;;;;;;;7.00;1.07;;;;;;;15.37;86.72;99817.94;5011042;28;20637;-60
2022/07/21 10:36:44;;;;;;;7.73;1.33;;;;;;;15.37;86.91;99827.63;5014674;28;20312;-58
2022/07/21 10:39:27;;;;;;;4.83;1.10;;;;;;;15.32;87.30;99809.41;5014577;28;20490;-59
2022/07/21 10:42:01;;;;;;;7.67;1.00;;;;;;;15.34;87.25;99817.25;5014191;28;20277;-60
2022/07/21 10:44:47;;;;;;;6.73;1.10;;;;;;;15.35;87.25;99814.56;5023853;28;20412;-59
2022/07/21 10:47:20;;;;;;;3.70;0.87;;;;;;;15.34;87.70;99828.63;5014540;28;20368;-60
2022/07/21 10:49:53;;;;;;;4.20;1.13;;;;;;;15.31;87.58;99823.50;5014944;28;20352;-61
2022/07/21 10:52:58;;;;;;;1.77;1.10;;;;;;;15.33;87.84;99826.91;5015254;28;20281;-60
2022/07/21 10:55:31;;;;;;;1.97;0.70;;;;;;;15.30;87.66;99822.66;5022572;28;20296;-61
2022/07/21 10:58:14;;;;;;;7.13;1.00;;;;;;;15.31;88.03;99823.50;5024541;28;20295;-61
2022/07/21 11:00:52;;;;;;;4.37;1.10;;;;;;;15.32;88.25;99819.94;5023175;28;20304;-60
2022/07/21 11:03:26;;;;;;;2.27;0.83;;;;;;;15.31;88.12;99824.34;5027356;28;20290;-60
2022/07/21 11:06:22;;;;;;;3.37;0.97;;;;;;;15.27;88.17;99827.16;5034763;28;20367;-60
2022/07/21 11:09:11;;;;;;;2.63;0.97;;;;;;;15.29;88.41;99836.72;5034905;28;20291;-60
2022/07/21 11:11:58;;;;;;;10.80;1.30;;;;;;;15.27;88.31;99837.69;5034527;28;20272;-60
2022/07/21 11:14:40;;;;;;;2.00;1.10;;;;;;;15.30;88.69;99840.19;5034590;28;20284;-59
2022/07/21 11:17:27;;;;;;;2.30;1.20;;;;;;;15.28;88.79;99834.16;5014601;28;20273;-60
2022/07/21 11:19:58;;;;;;;5.50;0.87;;;;;;;15.29;88.81;99830.59;5014826;28;20350;-60
2022/07/21 11:22:31;;;;;;;2.37;1.07;;;;;;;15.27;88.52;99832.44;5014907;28;20289;-60
2022/07/21 11:25:04;;;;;;;6.17;1.10;;;;;;;15.21;88.38;99837.97;5014847;28;20570;-61
2022/07/21 11:27:36;;;;;;;4.90;1.20;;;;;;;15.20;88.52;99821.31;5014337;28;20343;-60
2022/07/21 11:30:09;;;;;;;1.83;1.00;;;;;;;15.21;88.47;99832.72;5014363;28;20299;-58
2022/07/21 11:32:48;;;;;;;1.80;1.00;;;;;;;15.19;88.47;99838.03;5015805;28;20288;-61
2022/07/21 11:35:18;;;;;;;1.30;1.10;;;;;;;15.21;88.53;99828.28;5014592;28;20413;-61
2022/07/21 11:37:49;;;;;;;4.60;1.03;;;;;;;15.20;88.39;99823.06;5014429;28;20049;-60
2022/07/21 11:40:21;;;;;;;3.80;1.07;;;;;;;15.23;88.57;99830.88;5026820;28;20350;-59
2022/07/21 11:42:54;;;;;;;1.63;1.13;;;;;;;15.24;88.42;99827.31;5034535;28;20280;-61
2022/07/21 11:45:28;;;;;;;3.60;1.40;;;;;;;15.25;88.32;99831.63;5013964;28;20348;-60
2022/07/21 11:48:02;;;;;;;1.43;1.13;;;;;;;15.26;88.49;99836.00;5017882;28;20333;-60
2022/07/21 11:50:33;;;;;;;2.67;1.27;;;;;;;15.29;88.25;99841.13;5018207;28;20509;-62
2022/07/21 11:53:06;;;;;;;5.13;1.33;;;;;;;15.25;88.27;99829.00;5032322;28;20295;-61
2022/07/21 11:55:37;;;;;;;2.17;1.10;;;;;;;15.26;88.47;99842.09;5019852;28;20295;-61
2022/07/21 11:58:15;;;;;;;5.03;1.23;;;;;;;15.19;89.08;99840.66;5014267;28;21153;-61